sensor_id;sensor_type;location;lat;lon;timestamp;temperature;humidity
14099;DHT22;7126;48.458;7.930;2022-09-19T00:01:39;14.40;99.90
14099;DHT22;7126;48.458;7.930;2022-09-19T00:04:09;14.50;99.90
14099;DHT22;7126;48.458;7.930;2022-09-19T00:06:36;14.50;99.90
14099;DHT22;7126;48.458;7.930;2022-09-19T00:09:05;14.50;99.90
14099;DHT22;7126;48.458;7.930;2022-09-19T00:11:31;14.50;99.90
14099;DHT22;7126;48.458;7.930;2022-09-19T00:13:58;14.40;99.90
14099;DHT22;7126;48.458;7.930;2022-09-19T00:16:27;14.40;99.90
14099;DHT22;7126;48.458;7.930;2022-09-19T00:18:55;14.40;99.90
14099;DHT22;7126;48.458;7.930;2022-09-19T00:21:26;14.40;99.90
14099;DHT22;7126;48.458;7.930;2022-09-19T00:23:52;14.40;99.90
14099;DHT22;7126;48.458;7.930;2022-09-19T00:26:37;14.30;99.90
14099;DHT22;7126;48.458;7.930;2022-09-19T00:29:04;14.30;99.90
14099;DHT22;7126;48.458;7.930;2022-09-19T00:31:30;14.30;99.90
14099;DHT22;7126;48.458;7.930;2022-09-19T00:33:56;14.20;99.90
14099;DHT22;7126;48.458;7.930;2022-09-19T00:36:22;14.30;99.90
14099;DHT22;7126;48.458;7.930;2022-09-19T00:38:48;14.20;99.90
14099;DHT22;7126;48.458;7.930;2022-09-19T00:41:22;14.20;99.90
14099;DHT22;7126;48.458;7.930;2022-09-19T00:43:54;14.20;99.90
14099;DHT22;7126;48.458;7.930;2022-09-19T00:46:21;14.10;99.90
14099;DHT22;7126;48.458;7.930;2022-09-19T00:48:57;14.00;99.90
14099;DHT22;7126;48.458;7.930;2022-09-19T00:51:51;13.90;99.90
14099;DHT22;7126;48.458;7.930;2022-09-19T00:54:27;13.90;99.90
14099;DHT22;7126;48.458;7.930;2022-09-19T00:56:55;13.80;99.90
14099;DHT22;7126;48.458;7.930;2022-09-19T00:59:24;13.80;99.90
14099;DHT22;7126;48.458;7.930;2022-09-19T01:01:53;13.80;99.90
14099;DHT22;7126;48.458;7.930;2022-09-19T01:04:25;13.70;99.90
14099;DHT22;7126;48.458;7.930;2022-09-19T01:15:10;13.70;99.90
14099;DHT22;7126;48.458;7.930;2022-09-19T01:17:44;13.70;99.90
14099;DHT22;7126;48.458;7.930;2022-09-19T01:29:25;13.50;99.90
14099;DHT22;7126;48.458;7.930;2022-09-19T01:31:54;13.50;99.90
14099;DHT22;7126;48.458;7.930;2022-09-19T01:34:32;13.40;99.90
14099;DHT22;7126;48.458;7.930;2022-09-19T01:39:33;13.30;99.90
14099;DHT22;7126;48.458;7.930;2022-09-19T01:42:00;13.30;99.90
14099;DHT22;7126;48.458;7.930;2022-09-19T01:44:28;13.30;99.90
14099;DHT22;7126;48.458;7.930;2022-09-19T01:47:27;13.20;99.90
14099;DHT22;7126;48.458;7.930;2022-09-19T01:55:47;13.10;99.90
14099;DHT22;7126;48.458;7.930;2022-09-19T02:03:58;13.00;99.90
14099;DHT22;7126;48.458;7.930;2022-09-19T02:06:45;13.00;99.90
14099;DHT22;7126;48.458;7.930;2022-09-19T02:11:45;13.00;99.90
14099;DHT22;7126;48.458;7.930;2022-09-19T02:14:14;12.90;99.90
14099;DHT22;7126;48.458;7.930;2022-09-19T02:16:47;12.80;99.90
14099;DHT22;7126;48.458;7.930;2022-09-19T02:19:51;12.70;99.90
14099;DHT22;7126;48.458;7.930;2022-09-19T02:22:28;12.60;99.90
14099;DHT22;7126;48.458;7.930;2022-09-19T02:24:58;12.50;99.90
14099;DHT22;7126;48.458;7.930;2022-09-19T02:27:30;12.50;99.90
14099;DHT22;7126;48.458;7.930;2022-09-19T02:30:05;12.50;99.90
14099;DHT22;7126;48.458;7.930;2022-09-19T02:32:35;12.50;99.90
14099;DHT22;7126;48.458;7.930;2022-09-19T02:35:02;12.50;99.90
14099;DHT22;7126;48.458;7.930;2022-09-19T02:37:34;12.40;99.90
14099;DHT22;7126;48.458;7.930;2022-09-19T02:40:09;12.30;99.90
14099;DHT22;7126;48.458;7.930;2022-09-19T02:42:48;12.20;99.90
14099;DHT22;7126;48.458;7.930;2022-09-19T02:45:23;12.20;99.90
14099;DHT22;7126;48.458;7.930;2022-09-19T02:50:45;12.00;99.90
14099;DHT22;7126;48.458;7.930;2022-09-19T02:53:17;12.00;99.90
14099;DHT22;7126;48.458;7.930;2022-09-19T02:55:51;11.80;99.90
14099;DHT22;7126;48.458;7.930;2022-09-19T02:58:21;11.80;99.90
14099;DHT22;7126;48.458;7.930;2022-09-19T03:00:50;11.70;99.90
14099;DHT22;7126;48.458;7.930;2022-09-19T03:03:43;11.50;99.90
14099;DHT22;7126;48.458;7.930;2022-09-19T03:06:32;11.20;99.90
14099;DHT22;7126;48.458;7.930;2022-09-19T03:08:59;11.10;99.90
14099;DHT22;7126;48.458;7.930;2022-09-19T03:11:27;11.00;99.90
14099;DHT22;7126;48.458;7.930;2022-09-19T03:13:54;11.00;99.90
14099;DHT22;7126;48.458;7.930;2022-09-19T03:16:25;11.00;99.90
14099;DHT22;7126;48.458;7.930;2022-09-19T03:18:52;11.00;99.90
14099;DHT22;7126;48.458;7.930;2022-09-19T03:21:22;11.00;99.90
14099;DHT22;7126;48.458;7.930;2022-09-19T03:23:50;10.90;99.90
14099;DHT22;7126;48.458;7.930;2022-09-19T03:26:19;11.00;99.90
14099;DHT22;7126;48.458;7.930;2022-09-19T03:28:46;10.90;99.90
14099;DHT22;7126;48.458;7.930;2022-09-19T03:31:12;10.80;99.90
14099;DHT22;7126;48.458;7.930;2022-09-19T03:33:38;10.60;99.90
14099;DHT22;7126;48.458;7.930;2022-09-19T03:36:05;10.60;99.90
14099;DHT22;7126;48.458;7.930;2022-09-19T03:38:38;10.60;99.90
14099;DHT22;7126;48.458;7.930;2022-09-19T03:41:19;10.70;99.90
14099;DHT22;7126;48.458;7.930;2022-09-19T03:43:45;10.70;99.90
14099;DHT22;7126;48.458;7.930;2022-09-19T03:46:12;10.70;99.90
14099;DHT22;7126;48.458;7.930;2022-09-19T03:48:39;10.70;99.90
14099;DHT22;7126;48.458;7.930;2022-09-19T03:51:05;10.70;99.90
14099;DHT22;7126;48.458;7.930;2022-09-19T03:53:31;10.70;99.90
14099;DHT22;7126;48.458;7.930;2022-09-19T03:55:57;10.70;99.90
14099;DHT22;7126;48.458;7.930;2022-09-19T03:58:24;10.60;99.90
14099;DHT22;7126;48.458;7.930;2022-09-19T04:00:50;10.60;99.90
14099;DHT22;7126;48.458;7.930;2022-09-19T04:03:16;10.60;99.90
14099;DHT22;7126;48.458;7.930;2022-09-19T04:05:44;10.50;99.90
14099;DHT22;7126;48.458;7.930;2022-09-19T04:08:10;10.50;99.90
14099;DHT22;7126;48.458;7.930;2022-09-19T04:10:36;10.60;99.90
14099;DHT22;7126;48.458;7.930;2022-09-19T04:13:02;10.60;99.90
14099;DHT22;7126;48.458;7.930;2022-09-19T04:15:27;10.60;99.90
14099;DHT22;7126;48.458;7.930;2022-09-19T04:17:53;10.60;99.90
14099;DHT22;7126;48.458;7.930;2022-09-19T04:20:18;10.60;99.90
14099;DHT22;7126;48.458;7.930;2022-09-19T04:22:44;10.60;99.90
14099;DHT22;7126;48.458;7.930;2022-09-19T04:25:09;10.50;99.90
14099;DHT22;7126;48.458;7.930;2022-09-19T04:27:37;10.50;99.90
14099;DHT22;7126;48.458;7.930;2022-09-19T04:30:03;10.50;99.90
14099;DHT22;7126;48.458;7.930;2022-09-19T04:32:29;10.50;99.90
14099;DHT22;7126;48.458;7.930;2022-09-19T04:34:56;10.40;99.90
14099;DHT22;7126;48.458;7.930;2022-09-19T04:37:23;10.40;99.90
14099;DHT22;7126;48.458;7.930;2022-09-19T04:39:49;10.40;99.90
14099;DHT22;7126;48.458;7.930;2022-09-19T04:42:15;10.50;99.90
14099;DHT22;7126;48.458;7.930;2022-09-19T04:44:41;10.40;99.90
14099;DHT22;7126;48.458;7.930;2022-09-19T04:47:07;10.40;99.90
14099;DHT22;7126;48.458;7.930;2022-09-19T04:49:33;10.40;99.90
14099;DHT22;7126;48.458;7.930;2022-09-19T04:52:09;10.40;99.90
14099;DHT22;7126;48.458;7.930;2022-09-19T04:54:38;10.40;99.90
14099;DHT22;7126;48.458;7.930;2022-09-19T04:57:04;10.40;99.90
14099;DHT22;7126;48.458;7.930;2022-09-19T04:59:32;10.40;99.90
14099;DHT22;7126;48.458;7.930;2022-09-19T05:01:59;10.30;99.90
14099;DHT22;7126;48.458;7.930;2022-09-19T05:04:24;10.30;99.90
14099;DHT22;7126;48.458;7.930;2022-09-19T05:06:51;10.30;99.90
14099;DHT22;7126;48.458;7.930;2022-09-19T05:09:17;10.30;99.90
14099;DHT22;7126;48.458;7.930;2022-09-19T05:11:43;10.30;99.90
14099;DHT22;7126;48.458;7.930;2022-09-19T05:14:12;10.30;99.90
14099;DHT22;7126;48.458;7.930;2022-09-19T05:16:40;10.40;99.90
14099;DHT22;7126;48.458;7.930;2022-09-19T05:19:06;10.40;99.90
14099;DHT22;7126;48.458;7.930;2022-09-19T05:21:32;10.50;99.90
14099;DHT22;7126;48.458;7.930;2022-09-19T05:23:59;10.60;99.90
14099;DHT22;7126;48.458;7.930;2022-09-19T05:26:25;10.60;99.90
14099;DHT22;7126;48.458;7.930;2022-09-19T05:28:51;10.60;99.90
14099;DHT22;7126;48.458;7.930;2022-09-19T05:31:17;10.60;99.90
14099;DHT22;7126;48.458;7.930;2022-09-19T05:33:44;10.50;99.90
14099;DHT22;7126;48.458;7.930;2022-09-19T05:36:10;10.40;99.90
14099;DHT22;7126;48.458;7.930;2022-09-19T05:38:35;10.40;99.90
14099;DHT22;7126;48.458;7.930;2022-09-19T05:41:02;10.40;99.90
14099;DHT22;7126;48.458;7.930;2022-09-19T05:43:28;10.40;99.90
14099;DHT22;7126;48.458;7.930;2022-09-19T05:45:55;10.50;99.90
14099;DHT22;7126;48.458;7.930;2022-09-19T05:48:22;10.50;99.90
14099;DHT22;7126;48.458;7.930;2022-09-19T05:50:49;10.40;99.90
14099;DHT22;7126;48.458;7.930;2022-09-19T05:53:16;10.40;99.90
14099;DHT22;7126;48.458;7.930;2022-09-19T05:56:00;10.60;99.90
14099;DHT22;7126;48.458;7.930;2022-09-19T05:58:26;10.70;99.90
14099;DHT22;7126;48.458;7.930;2022-09-19T06:00:53;10.70;99.90
14099;DHT22;7126;48.458;7.930;2022-09-19T06:03:19;10.80;99.90
14099;DHT22;7126;48.458;7.930;2022-09-19T06:05:49;10.80;99.90
14099;DHT22;7126;48.458;7.930;2022-09-19T06:08:17;10.90;99.90
14099;DHT22;7126;48.458;7.930;2022-09-19T06:10:44;10.90;99.90
14099;DHT22;7126;48.458;7.930;2022-09-19T06:13:15;10.90;99.90
14099;DHT22;7126;48.458;7.930;2022-09-19T06:15:41;11.00;99.90
14099;DHT22;7126;48.458;7.930;2022-09-19T06:18:07;11.10;99.90
14099;DHT22;7126;48.458;7.930;2022-09-19T06:20:35;11.10;99.90
14099;DHT22;7126;48.458;7.930;2022-09-19T06:23:03;11.10;99.90
14099;DHT22;7126;48.458;7.930;2022-09-19T06:25:29;11.10;99.90
14099;DHT22;7126;48.458;7.930;2022-09-19T06:27:56;11.20;99.90
14099;DHT22;7126;48.458;7.930;2022-09-19T06:30:22;11.10;99.90
14099;DHT22;7126;48.458;7.930;2022-09-19T06:32:48;11.30;99.90
14099;DHT22;7126;48.458;7.930;2022-09-19T06:35:15;11.30;99.90
14099;DHT22;7126;48.458;7.930;2022-09-19T06:37:40;11.40;99.90
14099;DHT22;7126;48.458;7.930;2022-09-19T06:40:07;11.50;99.90
14099;DHT22;7126;48.458;7.930;2022-09-19T06:42:33;11.70;99.90
14099;DHT22;7126;48.458;7.930;2022-09-19T06:44:59;11.70;99.90
14099;DHT22;7126;48.458;7.930;2022-09-19T06:47:24;11.70;99.90
14099;DHT22;7126;48.458;7.930;2022-09-19T06:49:50;11.70;99.90
14099;DHT22;7126;48.458;7.930;2022-09-19T06:52:15;11.70;99.90
14099;DHT22;7126;48.458;7.930;2022-09-19T06:54:41;11.70;99.90
14099;DHT22;7126;48.458;7.930;2022-09-19T06:57:07;11.70;99.90
14099;DHT22;7126;48.458;7.930;2022-09-19T06:59:32;11.70;99.90
14099;DHT22;7126;48.458;7.930;2022-09-19T07:01:58;11.80;99.90
14099;DHT22;7126;48.458;7.930;2022-09-19T07:04:24;11.90;99.90
14099;DHT22;7126;48.458;7.930;2022-09-19T07:06:50;11.90;99.90
14099;DHT22;7126;48.458;7.930;2022-09-19T07:09:16;12.00;99.90
14099;DHT22;7126;48.458;7.930;2022-09-19T07:11:42;12.00;99.90
14099;DHT22;7126;48.458;7.930;2022-09-19T07:14:10;11.90;99.90
14099;DHT22;7126;48.458;7.930;2022-09-19T07:16:36;11.90;99.90
14099;DHT22;7126;48.458;7.930;2022-09-19T07:19:01;12.00;99.90
14099;DHT22;7126;48.458;7.930;2022-09-19T07:21:27;12.10;99.90
14099;DHT22;7126;48.458;7.930;2022-09-19T07:23:53;12.20;99.90
14099;DHT22;7126;48.458;7.930;2022-09-19T07:26:19;12.30;99.90
14099;DHT22;7126;48.458;7.930;2022-09-19T07:28:46;12.30;99.90
14099;DHT22;7126;48.458;7.930;2022-09-19T07:31:11;12.30;99.90
14099;DHT22;7126;48.458;7.930;2022-09-19T07:33:37;12.30;99.90
14099;DHT22;7126;48.458;7.930;2022-09-19T07:36:03;12.40;99.90
14099;DHT22;7126;48.458;7.930;2022-09-19T07:38:29;12.40;99.90
14099;DHT22;7126;48.458;7.930;2022-09-19T07:40:55;12.40;99.90
14099;DHT22;7126;48.458;7.930;2022-09-19T07:43:21;12.50;99.90
14099;DHT22;7126;48.458;7.930;2022-09-19T07:45:51;12.60;99.90
14099;DHT22;7126;48.458;7.930;2022-09-19T07:48:18;12.70;99.90
14099;DHT22;7126;48.458;7.930;2022-09-19T07:50:44;12.90;99.90
14099;DHT22;7126;48.458;7.930;2022-09-19T07:53:15;12.90;99.90
14099;DHT22;7126;48.458;7.930;2022-09-19T07:55:41;12.90;99.90
14099;DHT22;7126;48.458;7.930;2022-09-19T07:58:10;13.00;99.90
14099;DHT22;7126;48.458;7.930;2022-09-19T08:00:36;13.00;99.90
14099;DHT22;7126;48.458;7.930;2022-09-19T08:03:04;13.00;99.90
14099;DHT22;7126;48.458;7.930;2022-09-19T08:05:37;13.00;99.90
14099;DHT22;7126;48.458;7.930;2022-09-19T08:08:04;13.10;99.90
14099;DHT22;7126;48.458;7.930;2022-09-19T08:10:30;13.10;99.90
14099;DHT22;7126;48.458;7.930;2022-09-19T08:13:05;13.20;99.90
14099;DHT22;7126;48.458;7.930;2022-09-19T08:15:33;13.20;99.90
14099;DHT22;7126;48.458;7.930;2022-09-19T08:18:02;13.20;99.90
14099;DHT22;7126;48.458;7.930;2022-09-19T08:20:30;13.20;99.90
14099;DHT22;7126;48.458;7.930;2022-09-19T08:23:01;13.30;99.90
14099;DHT22;7126;48.458;7.930;2022-09-19T08:25:29;13.40;99.90
14099;DHT22;7126;48.458;7.930;2022-09-19T08:27:58;13.50;99.90
14099;DHT22;7126;48.458;7.930;2022-09-19T08:30:25;13.60;99.90
14099;DHT22;7126;48.458;7.930;2022-09-19T08:32:52;13.60;99.90
14099;DHT22;7126;48.458;7.930;2022-09-19T08:35:19;13.70;99.90
14099;DHT22;7126;48.458;7.930;2022-09-19T08:37:46;13.80;99.90
14099;DHT22;7126;48.458;7.930;2022-09-19T08:40:14;13.90;99.90
14099;DHT22;7126;48.458;7.930;2022-09-19T08:56:39;14.20;99.90
14099;DHT22;7126;48.458;7.930;2022-09-19T08:59:16;14.40;99.90
14099;DHT22;7126;48.458;7.930;2022-09-19T09:01:45;14.60;99.90
14099;DHT22;7126;48.458;7.930;2022-09-19T09:04:16;14.70;99.90
14099;DHT22;7126;48.458;7.930;2022-09-19T09:06:59;14.70;99.90
14099;DHT22;7126;48.458;7.930;2022-09-19T09:14:52;14.50;99.90
14099;DHT22;7126;48.458;7.930;2022-09-19T09:23:40;14.70;99.90
14099;DHT22;7126;48.458;7.930;2022-09-19T09:26:19;14.90;99.90
14099;DHT22;7126;48.458;7.930;2022-09-19T09:28:50;15.10;99.90
14099;DHT22;7126;48.458;7.930;2022-09-19T09:31:21;15.10;99.90
14099;DHT22;7126;48.458;7.930;2022-09-19T09:34:38;15.10;99.90
14099;DHT22;7126;48.458;7.930;2022-09-19T09:36:43;15.20;99.90
14099;DHT22;7126;48.458;7.930;2022-09-19T09:39:20;15.10;99.90
14099;DHT22;7126;48.458;7.930;2022-09-19T09:41:59;14.90;99.90
14099;DHT22;7126;48.458;7.930;2022-09-19T09:44:35;15.00;99.90
14099;DHT22;7126;48.458;7.930;2022-09-19T09:49:54;15.30;99.90
14099;DHT22;7126;48.458;7.930;2022-09-19T09:58:16;15.50;99.90
14099;DHT22;7126;48.458;7.930;2022-09-19T10:00:47;15.80;99.90
14099;DHT22;7126;48.458;7.930;2022-09-19T10:06:11;16.30;99.90
14099;DHT22;7126;48.458;7.930;2022-09-19T10:09:05;16.40;99.90
14099;DHT22;7126;48.458;7.930;2022-09-19T10:11:53;16.50;99.90
14099;DHT22;7126;48.458;7.930;2022-09-19T10:14:24;16.50;99.90
14099;DHT22;7126;48.458;7.930;2022-09-19T10:16:52;16.50;99.90
14099;DHT22;7126;48.458;7.930;2022-09-19T10:19:26;16.50;99.90
14099;DHT22;7126;48.458;7.930;2022-09-19T10:21:54;16.40;99.90
14099;DHT22;7126;48.458;7.930;2022-09-19T10:27:20;16.10;99.90
14099;DHT22;7126;48.458;7.930;2022-09-19T10:32:30;15.70;99.90
14099;DHT22;7126;48.458;7.930;2022-09-19T10:35:24;15.70;99.90
14099;DHT22;7126;48.458;7.930;2022-09-19T10:38:08;15.80;99.90
14099;DHT22;7126;48.458;7.930;2022-09-19T10:40:54;16.00;99.90
14099;DHT22;7126;48.458;7.930;2022-09-19T10:43:37;16.50;99.90
14099;DHT22;7126;48.458;7.930;2022-09-19T10:46:05;16.80;99.90
14099;DHT22;7126;48.458;7.930;2022-09-19T10:48:47;17.10;99.90
14099;DHT22;7126;48.458;7.930;2022-09-19T10:51:15;17.00;99.90
14099;DHT22;7126;48.458;7.930;2022-09-19T10:53:45;16.80;99.90
14099;DHT22;7126;48.458;7.930;2022-09-19T10:56:33;16.60;99.90
14099;DHT22;7126;48.458;7.930;2022-09-19T10:59:07;16.50;99.90
14099;DHT22;7126;48.458;7.930;2022-09-19T11:02:14;16.30;99.90
14099;DHT22;7126;48.458;7.930;2022-09-19T11:04:51;16.00;99.90
14099;DHT22;7126;48.458;7.930;2022-09-19T11:07:24;15.90;99.90
14099;DHT22;7126;48.458;7.930;2022-09-19T11:09:51;16.00;99.90
14099;DHT22;7126;48.458;7.930;2022-09-19T11:12:24;15.80;99.90
14099;DHT22;7126;48.458;7.930;2022-09-19T11:14:50;15.70;99.90
14099;DHT22;7126;48.458;7.930;2022-09-19T11:20:24;15.90;99.90
14099;DHT22;7126;48.458;7.930;2022-09-19T11:26:17;15.90;99.90
14099;DHT22;7126;48.458;7.930;2022-09-19T11:37:07;16.50;99.90
14099;DHT22;7126;48.458;7.930;2022-09-19T11:45:19;17.20;99.90
14099;DHT22;7126;48.458;7.930;2022-09-19T11:53:42;18.30;99.90
14099;DHT22;7126;48.458;7.930;2022-09-19T11:59:36;18.40;99.90
14099;DHT22;7126;48.458;7.930;2022-09-19T12:08:12;19.00;99.90
14099;DHT22;7126;48.458;7.930;2022-09-19T12:11:04;19.00;99.90
14099;DHT22;7126;48.458;7.930;2022-09-19T12:16:25;19.60;99.90
14099;DHT22;7126;48.458;7.930;2022-09-19T12:19:02;19.40;99.90
14099;DHT22;7126;48.458;7.930;2022-09-19T12:21:47;19.30;99.90
14099;DHT22;7126;48.458;7.930;2022-09-19T12:24:24;18.80;99.90
14099;DHT22;7126;48.458;7.930;2022-09-19T12:27:26;18.80;99.90
14099;DHT22;7126;48.458;7.930;2022-09-19T12:30:25;19.00;99.90
14099;DHT22;7126;48.458;7.930;2022-09-19T12:33:03;18.90;99.90
14099;DHT22;7126;48.458;7.930;2022-09-19T12:46:55;18.70;99.90
14099;DHT22;7126;48.458;7.930;2022-09-19T12:55:05;19.10;99.90
14099;DHT22;7126;48.458;7.930;2022-09-19T13:00:17;20.20;99.90
14099;DHT22;7126;48.458;7.930;2022-09-19T13:07:59;20.20;99.90
14099;DHT22;7126;48.458;7.930;2022-09-19T13:10:39;19.60;99.90
14099;DHT22;7126;48.458;7.930;2022-09-19T13:15:56;18.70;99.90
14099;DHT22;7126;48.458;7.930;2022-09-19T13:18:25;18.50;99.90
14099;DHT22;7126;48.458;7.930;2022-09-19T13:21:22;18.40;99.90
14099;DHT22;7126;48.458;7.930;2022-09-19T13:24:08;18.30;99.90
14099;DHT22;7126;48.458;7.930;2022-09-19T13:26:37;18.30;99.90
14099;DHT22;7126;48.458;7.930;2022-09-19T13:47:51;18.40;99.90
14099;DHT22;7126;48.458;7.930;2022-09-19T13:50:23;18.90;99.90
14099;DHT22;7126;48.458;7.930;2022-09-19T13:52:55;19.10;99.90
14099;DHT22;7126;48.458;7.930;2022-09-19T13:55:37;18.90;99.90
14099;DHT22;7126;48.458;7.930;2022-09-19T13:58:36;18.70;99.90
14099;DHT22;7126;48.458;7.930;2022-09-19T14:01:07;18.60;99.90
14099;DHT22;7126;48.458;7.930;2022-09-19T14:03:55;18.50;99.90
14099;DHT22;7126;48.458;7.930;2022-09-19T14:06:29;18.40;99.90
14099;DHT22;7126;48.458;7.930;2022-09-19T14:11:45;18.10;99.90
14099;DHT22;7126;48.458;7.930;2022-09-19T14:19:51;17.90;99.90
14099;DHT22;7126;48.458;7.930;2022-09-19T14:25:20;17.60;99.90
14099;DHT22;7126;48.458;7.930;2022-09-19T14:33:35;17.70;99.90
14099;DHT22;7126;48.458;7.930;2022-09-19T14:36:24;17.90;99.90
14099;DHT22;7126;48.458;7.930;2022-09-19T14:42:00;18.70;99.90
14099;DHT22;7126;48.458;7.930;2022-09-19T14:47:45;19.00;99.90
14099;DHT22;7126;48.458;7.930;2022-09-19T14:50:22;19.00;99.90
14099;DHT22;7126;48.458;7.930;2022-09-19T14:52:59;18.80;99.90
14099;DHT22;7126;48.458;7.930;2022-09-19T14:55:28;18.60;99.90
14099;DHT22;7126;48.458;7.930;2022-09-19T14:57:54;18.50;99.90
14099;DHT22;7126;48.458;7.930;2022-09-19T15:00:22;18.60;99.90
14099;DHT22;7126;48.458;7.930;2022-09-19T15:02:49;18.80;99.90
14099;DHT22;7126;48.458;7.930;2022-09-19T15:05:18;18.90;99.90
14099;DHT22;7126;48.458;7.930;2022-09-19T15:07:44;18.90;99.90
14099;DHT22;7126;48.458;7.930;2022-09-19T15:10:37;18.60;99.90
14099;DHT22;7126;48.458;7.930;2022-09-19T15:15:43;18.40;99.90
14099;DHT22;7126;48.458;7.930;2022-09-19T15:21:03;18.50;99.90
14099;DHT22;7126;48.458;7.930;2022-09-19T15:23:32;18.60;99.90
14099;DHT22;7126;48.458;7.930;2022-09-19T15:26:03;18.60;99.90
14099;DHT22;7126;48.458;7.930;2022-09-19T15:28:33;18.50;99.90
14099;DHT22;7126;48.458;7.930;2022-09-19T15:33:43;18.40;99.90
14099;DHT22;7126;48.458;7.930;2022-09-19T15:36:19;18.30;99.90
14099;DHT22;7126;48.458;7.930;2022-09-19T15:38:48;18.10;99.90
14099;DHT22;7126;48.458;7.930;2022-09-19T15:41:15;18.00;99.90
14099;DHT22;7126;48.458;7.930;2022-09-19T15:43:44;17.90;99.90
14099;DHT22;7126;48.458;7.930;2022-09-19T15:48:58;17.70;99.90
14099;DHT22;7126;48.458;7.930;2022-09-19T15:51:33;17.60;99.90
14099;DHT22;7126;48.458;7.930;2022-09-19T15:54:00;17.40;99.90
14099;DHT22;7126;48.458;7.930;2022-09-19T15:56:26;17.30;99.90
14099;DHT22;7126;48.458;7.930;2022-09-19T15:58:53;17.30;99.90
14099;DHT22;7126;48.458;7.930;2022-09-19T16:01:25;17.20;99.90
14099;DHT22;7126;48.458;7.930;2022-09-19T16:04:12;17.20;99.90
14099;DHT22;7126;48.458;7.930;2022-09-19T16:06:43;17.00;99.90
14099;DHT22;7126;48.458;7.930;2022-09-19T16:09:39;17.00;99.90
14099;DHT22;7126;48.458;7.930;2022-09-19T16:12:27;17.00;99.90
14099;DHT22;7126;48.458;7.930;2022-09-19T16:14:56;17.00;99.90
14099;DHT22;7126;48.458;7.930;2022-09-19T16:17:24;17.00;99.90
14099;DHT22;7126;48.458;7.930;2022-09-19T16:22:59;16.80;99.90
14099;DHT22;7126;48.458;7.930;2022-09-19T16:25:35;16.70;99.90
14099;DHT22;7126;48.458;7.930;2022-09-19T16:28:29;16.60;99.90
14099;DHT22;7126;48.458;7.930;2022-09-19T16:33:34;16.50;99.90
14099;DHT22;7126;48.458;7.930;2022-09-19T16:36:02;16.50;99.90
14099;DHT22;7126;48.458;7.930;2022-09-19T16:38:29;16.50;99.90
14099;DHT22;7126;48.458;7.930;2022-09-19T16:40:57;16.60;99.90
14099;DHT22;7126;48.458;7.930;2022-09-19T16:43:37;16.60;99.90
14099;DHT22;7126;48.458;7.930;2022-09-19T16:46:04;16.50;99.90
14099;DHT22;7126;48.458;7.930;2022-09-19T16:48:32;16.40;99.90
14099;DHT22;7126;48.458;7.930;2022-09-19T16:50:58;16.40;99.90
14099;DHT22;7126;48.458;7.930;2022-09-19T16:53:24;16.30;99.90
14099;DHT22;7126;48.458;7.930;2022-09-19T16:55:50;16.30;99.90
14099;DHT22;7126;48.458;7.930;2022-09-19T16:58:16;16.20;99.90
14099;DHT22;7126;48.458;7.930;2022-09-19T17:00:43;16.10;99.90
14099;DHT22;7126;48.458;7.930;2022-09-19T17:03:12;16.00;99.90
14099;DHT22;7126;48.458;7.930;2022-09-19T17:05:40;15.90;99.90
14099;DHT22;7126;48.458;7.930;2022-09-19T17:08:06;15.80;99.90
14099;DHT22;7126;48.458;7.930;2022-09-19T17:10:33;15.80;99.90
14099;DHT22;7126;48.458;7.930;2022-09-19T17:12:59;15.70;99.90
14099;DHT22;7126;48.458;7.930;2022-09-19T17:18:28;15.60;99.90
14099;DHT22;7126;48.458;7.930;2022-09-19T17:20:57;15.50;99.90
14099;DHT22;7126;48.458;7.930;2022-09-19T17:23:24;15.40;99.90
14099;DHT22;7126;48.458;7.930;2022-09-19T17:25:52;15.40;99.90
14099;DHT22;7126;48.458;7.930;2022-09-19T17:28:24;15.30;99.90
14099;DHT22;7126;48.458;7.930;2022-09-19T17:30:51;15.30;99.90
14099;DHT22;7126;48.458;7.930;2022-09-19T17:33:22;15.20;99.90
14099;DHT22;7126;48.458;7.930;2022-09-19T17:35:48;15.10;99.90
14099;DHT22;7126;48.458;7.930;2022-09-19T17:38:14;15.00;99.90
14099;DHT22;7126;48.458;7.930;2022-09-19T17:40:44;14.90;99.90
14099;DHT22;7126;48.458;7.930;2022-09-19T17:43:16;14.90;99.90
14099;DHT22;7126;48.458;7.930;2022-09-19T17:45:45;14.80;99.90
14099;DHT22;7126;48.458;7.930;2022-09-19T17:48:13;14.70;99.90
14099;DHT22;7126;48.458;7.930;2022-09-19T17:50:39;14.70;99.90
14099;DHT22;7126;48.458;7.930;2022-09-19T17:53:08;14.70;99.90
14099;DHT22;7126;48.458;7.930;2022-09-19T17:55:35;14.60;99.90
14099;DHT22;7126;48.458;7.930;2022-09-19T17:58:00;14.50;99.90
14099;DHT22;7126;48.458;7.930;2022-09-19T18:00:29;14.40;99.90
14099;DHT22;7126;48.458;7.930;2022-09-19T18:02:54;14.40;99.90
14099;DHT22;7126;48.458;7.930;2022-09-19T18:05:39;14.40;99.90
14099;DHT22;7126;48.458;7.930;2022-09-19T18:08:05;14.30;99.90
14099;DHT22;7126;48.458;7.930;2022-09-19T18:10:32;14.20;99.90
14099;DHT22;7126;48.458;7.930;2022-09-19T18:12:59;14.10;99.90
14099;DHT22;7126;48.458;7.930;2022-09-19T18:15:29;14.00;99.90
14099;DHT22;7126;48.458;7.930;2022-09-19T18:17:56;13.90;99.90
14099;DHT22;7126;48.458;7.930;2022-09-19T18:20:23;13.80;99.90
14099;DHT22;7126;48.458;7.930;2022-09-19T18:22:49;13.80;99.90
14099;DHT22;7126;48.458;7.930;2022-09-19T18:25:15;13.70;99.90
14099;DHT22;7126;48.458;7.930;2022-09-19T18:27:45;13.50;99.90
14099;DHT22;7126;48.458;7.930;2022-09-19T18:30:14;13.50;99.90
14099;DHT22;7126;48.458;7.930;2022-09-19T18:32:45;13.50;99.90
14099;DHT22;7126;48.458;7.930;2022-09-19T18:35:13;13.40;99.90
14099;DHT22;7126;48.458;7.930;2022-09-19T18:37:41;13.30;99.90
14099;DHT22;7126;48.458;7.930;2022-09-19T18:40:09;13.20;99.90
14099;DHT22;7126;48.458;7.930;2022-09-19T18:42:35;13.30;99.90
14099;DHT22;7126;48.458;7.930;2022-09-19T18:45:01;13.30;99.90
14099;DHT22;7126;48.458;7.930;2022-09-19T18:47:30;13.30;99.90
14099;DHT22;7126;48.458;7.930;2022-09-19T18:49:57;13.20;99.90
14099;DHT22;7126;48.458;7.930;2022-09-19T18:52:23;13.20;99.90
14099;DHT22;7126;48.458;7.930;2022-09-19T18:54:49;13.20;99.90
14099;DHT22;7126;48.458;7.930;2022-09-19T18:57:14;13.30;99.90
14099;DHT22;7126;48.458;7.930;2022-09-19T18:59:40;13.40;99.90
14099;DHT22;7126;48.458;7.930;2022-09-19T19:02:05;13.30;99.90
14099;DHT22;7126;48.458;7.930;2022-09-19T19:04:31;13.20;99.90
14099;DHT22;7126;48.458;7.930;2022-09-19T19:06:57;13.20;99.90
14099;DHT22;7126;48.458;7.930;2022-09-19T19:09:23;13.20;99.90
14099;DHT22;7126;48.458;7.930;2022-09-19T19:11:49;13.10;99.90
14099;DHT22;7126;48.458;7.930;2022-09-19T19:14:15;13.10;99.90
14099;DHT22;7126;48.458;7.930;2022-09-19T19:16:41;13.10;99.90
14099;DHT22;7126;48.458;7.930;2022-09-19T19:19:06;13.20;99.90
14099;DHT22;7126;48.458;7.930;2022-09-19T19:21:34;13.20;99.90
14099;DHT22;7126;48.458;7.930;2022-09-19T19:24:02;13.20;99.90
14099;DHT22;7126;48.458;7.930;2022-09-19T19:26:29;13.20;99.90
14099;DHT22;7126;48.458;7.930;2022-09-19T19:28:56;13.20;99.90
14099;DHT22;7126;48.458;7.930;2022-09-19T19:31:22;13.10;99.90
14099;DHT22;7126;48.458;7.930;2022-09-19T19:33:48;13.10;99.90